Terminal Aerodrome Forecast
Issued by NWS

Current Version | Previous Version | Graphics & Text | Print | Product List | Glossary On
Versions: 1 2 3 4 5 6 7 8 9 10 11 12 13 14 15 16 17 18 19 20 21 22 23 24 25
000
FTUS41 KILN 210537
TAFLUK
TAF
KLUK 210537Z 2106/2206 00000KT P6SM BKN100
     FM211300 21003KT P6SM SKC
     FM211800 25009KT P6SM SCT060
     FM220000 22003KT P6SM SCT045=

USA.gov is the U.S. government's official web portal to all federal, state and local government web resources and services.